createdAt,value
2023-02-24T00:01:43.114Z,10.97
2023-02-24T00:04:13.363Z,10.96
2023-02-24T00:06:44.112Z,10.96
2023-02-24T00:09:12.660Z,10.95
2023-02-24T00:11:48.356Z,10.95
2023-02-24T00:14:17.040Z,10.94
2023-02-24T00:16:45.301Z,10.99
2023-02-24T00:19:18.232Z,10.99
2023-02-24T00:21:45.615Z,11.33
2023-02-24T00:24:12.678Z,11.16
2023-02-24T00:26:40.050Z,11.04
2023-02-24T00:29:11.273Z,11.01
2023-02-24T00:31:42.942Z,10.98
2023-02-24T00:34:12.677Z,10.96
2023-02-24T00:36:40.036Z,10.94
2023-02-24T00:39:11.786Z,10.95
2023-02-24T00:41:44.094Z,10.96
2023-02-24T00:44:13.648Z,10.95
2023-02-24T00:46:41.323Z,10.96
2023-02-24T00:49:12.672Z,10.93
2023-02-24T00:51:41.848Z,10.96
2023-02-24T00:54:10.458Z,10.95
2023-02-24T00:56:37.278Z,10.94
2023-02-24T00:59:04.187Z,10.95
2023-02-24T01:01:33.440Z,10.93
2023-02-24T01:04:05.855Z,10.94
2023-02-24T01:06:34.228Z,10.94
2023-02-24T01:09:01.253Z,10.92
2023-02-24T01:11:54.046Z,10.91
2023-02-24T01:14:23.802Z,10.94
2023-02-24T01:16:51.256Z,10.94
2023-02-24T01:19:23.021Z,10.96
2023-02-24T01:21:55.276Z,10.93
2023-02-24T01:24:23.871Z,10.94
2023-02-24T01:26:51.087Z,10.95
2023-02-24T01:29:17.811Z,10.94
2023-02-24T01:31:45.532Z,10.93
2023-02-24T01:34:13.393Z,10.94
2023-02-24T01:36:45.042Z,10.93
2023-02-24T01:39:13.611Z,10.92
2023-02-24T01:41:43.952Z,10.92
2023-02-24T01:44:14.571Z,10.90
2023-02-24T01:46:48.108Z,10.91
2023-02-24T01:49:20.332Z,10.91
2023-02-24T01:51:49.442Z,10.91
2023-02-24T01:54:19.359Z,10.91
2023-02-24T01:56:50.358Z,10.90
2023-02-24T01:59:20.014Z,10.89
2023-02-24T02:01:48.132Z,10.90
2023-02-24T02:04:34.852Z,10.90
2023-02-24T02:07:02.447Z,10.90
2023-02-24T02:09:32.674Z,10.90
2023-02-24T02:11:59.866Z,10.91
2023-02-24T02:14:31.166Z,10.90
2023-02-24T02:17:21.220Z,10.90
2023-02-24T02:20:15.968Z,10.92
2023-02-24T02:22:51.653Z,10.89
2023-02-24T02:25:38.744Z,10.90
2023-02-24T02:28:40.574Z,10.90
2023-02-24T02:31:13.335Z,10.88
2023-02-24T02:33:58.378Z,10.90
2023-02-24T02:36:43.636Z,10.88
2023-02-24T02:39:43.347Z,10.89
2023-02-24T03:06:24.907Z,10.83
2023-02-24T03:09:16.024Z,10.83
2023-02-24T03:11:52.972Z,10.83
2023-02-24T03:14:25.117Z,10.83
2023-02-24T03:16:54.094Z,10.83
2023-02-24T03:19:27.279Z,10.82
2023-02-24T03:22:15.645Z,10.84
2023-02-24T03:24:44.261Z,10.82
2023-02-24T03:27:27.656Z,10.84
2023-02-24T03:30:01.967Z,10.82
2023-02-24T03:32:44.140Z,10.83
2023-02-24T03:35:13.900Z,10.82
2023-02-24T03:37:41.195Z,10.82
2023-02-24T03:40:12.081Z,10.81
2023-02-24T03:42:43.422Z,10.83
2023-02-24T03:45:10.957Z,10.82
2023-02-24T03:47:37.943Z,10.81
2023-02-24T03:50:13.011Z,10.81
2023-02-24T03:53:01.632Z,10.80
2023-02-24T03:55:37.787Z,10.81
2023-02-24T03:58:12.710Z,10.80
2023-02-24T04:01:10.768Z,10.81
2023-02-24T04:04:07.448Z,10.80
2023-02-24T04:06:51.600Z,10.79
2023-02-24T04:09:39.151Z,10.78
2023-02-24T04:12:27.047Z,10.79
2023-02-24T04:15:20.457Z,10.75
2023-02-24T04:17:53.435Z,10.77
2023-02-24T04:20:24.702Z,10.76
2023-02-24T04:23:08.660Z,10.77
2023-02-24T04:25:37.377Z,10.77
2023-02-24T04:28:08.052Z,10.77
2023-02-24T04:30:40.907Z,10.76
2023-02-24T04:33:08.217Z,10.76
2023-02-24T04:35:36.049Z,10.76
2023-02-24T04:38:03.213Z,10.76
2023-02-24T04:40:31.146Z,10.75
2023-02-24T04:42:57.820Z,10.77
2023-02-24T04:45:30.629Z,10.75
2023-02-24T04:48:01.120Z,10.75
2023-02-24T04:50:34.662Z,10.74
2023-02-24T04:53:09.297Z,10.74
2023-02-24T04:55:42.357Z,10.75
2023-02-24T04:58:14.266Z,10.74
2023-02-24T05:00:41.937Z,10.73
2023-02-24T05:03:11.855Z,10.76
2023-02-24T05:05:38.609Z,10.75
2023-02-24T05:08:10.595Z,10.75
2023-02-24T05:10:41.778Z,10.74
2023-02-24T05:13:09.436Z,10.73
2023-02-24T05:15:40.627Z,10.73
2023-02-24T05:18:14.004Z,10.72
2023-02-24T05:21:03.021Z,10.67
2023-02-24T05:23:33.926Z,10.70
2023-02-24T05:26:02.598Z,10.70
2023-02-24T05:28:31.751Z,10.69
2023-02-24T05:31:11.237Z,10.69
2023-02-24T05:33:38.735Z,10.67
2023-02-24T05:36:08.835Z,10.66
2023-02-24T05:38:38.133Z,10.65
2023-02-24T05:41:07.349Z,10.68
2023-02-24T05:43:35.065Z,10.96
2023-02-24T05:46:04.585Z,10.86
2023-02-24T05:48:35.399Z,10.74
2023-02-24T05:51:05.266Z,10.68
2023-02-24T05:53:32.069Z,10.66
2023-02-24T05:56:01.543Z,10.62
2023-02-24T05:58:29.188Z,10.63
2023-02-24T06:00:56.345Z,10.60
2023-02-24T06:03:31.082Z,10.60
2023-02-24T06:06:08.946Z,10.58
2023-02-24T06:08:42.490Z,10.57
2023-02-24T06:11:10.414Z,10.56
2023-02-24T06:13:40.020Z,10.56
2023-02-24T06:16:07.349Z,10.54
2023-02-24T06:18:34.230Z,10.54
2023-02-24T06:21:04.586Z,10.53
2023-02-24T06:23:31.287Z,10.53
2023-02-24T06:26:02.022Z,10.50
2023-02-24T06:28:28.680Z,10.51
2023-02-24T06:30:56.308Z,10.50
2023-02-24T06:33:26.449Z,10.49
2023-02-24T06:35:53.440Z,10.49
2023-02-24T06:38:20.234Z,10.47
2023-02-24T06:40:47.575Z,10.47
2023-02-24T06:43:14.208Z,10.45
2023-02-24T06:45:41.403Z,10.46
2023-02-24T06:48:09.137Z,10.44
2023-02-24T06:50:35.842Z,10.46
2023-02-24T06:53:02.772Z,10.43
2023-02-24T06:55:29.636Z,10.42
2023-02-24T06:58:04.709Z,10.41
2023-02-24T07:00:39.680Z,10.51
2023-02-24T07:03:15.243Z,10.43
2023-02-24T07:05:50.484Z,10.43
2023-02-24T07:08:19.974Z,10.43
2023-02-24T07:10:52.229Z,10.42
2023-02-24T07:13:19.255Z,10.43
2023-02-24T07:15:49.418Z,10.40
2023-02-24T07:18:17.641Z,10.42
2023-02-24T07:20:46.645Z,10.41
2023-02-24T07:23:15.450Z,10.38
2023-02-24T07:25:46.466Z,10.41
2023-02-24T07:28:14.318Z,10.41
2023-02-24T07:30:41.881Z,10.40
2023-02-24T07:33:09.229Z,10.43
2023-02-24T07:35:36.036Z,10.44
2023-02-24T07:38:05.554Z,10.50
2023-02-24T07:40:33.833Z,10.55
2023-02-24T07:43:01.525Z,10.61
2023-02-24T07:45:29.746Z,10.75
2023-02-24T07:47:57.217Z,10.91
2023-02-24T07:50:24.260Z,11.00
2023-02-24T07:52:51.797Z,11.15
2023-02-24T07:55:18.684Z,11.24
2023-02-24T07:57:48.424Z,11.37
2023-02-24T08:00:19.738Z,11.45
2023-02-24T08:02:49.028Z,11.52
2023-02-24T08:05:19.165Z,11.66
2023-02-24T08:07:49.881Z,11.73
2023-02-24T08:10:26.440Z,11.81
2023-02-24T08:12:56.184Z,11.86
2023-02-24T08:15:24.819Z,11.92
2023-02-24T08:18:00.629Z,11.96
2023-02-24T08:20:58.897Z,11.98
2023-02-24T08:23:25.770Z,12.12
2023-02-24T08:25:53.716Z,12.18
2023-02-24T08:28:20.495Z,12.22
2023-02-24T08:30:51.154Z,12.22
2023-02-24T08:33:22.409Z,12.44
2023-02-24T08:36:02.107Z,12.60
2023-02-24T08:38:42.072Z,12.73
2023-02-24T08:41:18.460Z,12.80
2023-02-24T08:43:46.529Z,12.87
2023-02-24T08:46:21.352Z,12.96
2023-02-24T08:48:51.137Z,13.08
2023-02-24T08:51:43.645Z,13.13
2023-02-24T08:54:27.021Z,13.10
2023-02-24T08:56:56.304Z,13.08
2023-02-24T08:59:38.562Z,13.17
2023-02-24T09:02:18.498Z,13.20
2023-02-24T09:04:57.830Z,13.22
2023-02-24T09:07:29.978Z,13.24
2023-02-24T09:09:56.898Z,13.24
2023-02-24T09:12:26.708Z,13.31
2023-02-24T09:14:56.924Z,13.33
2023-02-24T09:17:49.895Z,13.34
2023-02-24T09:20:35.731Z,13.34
2023-02-24T09:23:04.247Z,13.33
2023-02-24T09:25:44.040Z,13.36
2023-02-24T09:28:27.449Z,13.43
2023-02-24T09:30:58.673Z,13.41
2023-02-24T09:33:25.421Z,13.42
2023-02-24T09:36:12.976Z,13.44
2023-02-24T09:39:00.464Z,13.43
2023-02-24T09:41:54.864Z,13.44
2023-02-24T09:44:24.310Z,13.50
2023-02-24T09:47:19.887Z,13.51
2023-02-24T09:49:59.244Z,13.60
2023-02-24T09:52:41.814Z,13.55
2023-02-24T09:55:35.756Z,13.59
2023-02-24T09:58:18.609Z,13.58
2023-02-24T10:01:20.976Z,13.67
2023-02-24T10:03:48.399Z,13.66
2023-02-24T10:06:20.595Z,13.69
2023-02-24T10:09:14.439Z,13.69
2023-02-24T10:12:03.951Z,13.70
2023-02-24T10:14:43.794Z,13.78
2023-02-24T10:17:23.054Z,13.76
2023-02-24T10:20:00.112Z,13.77
2023-02-24T10:22:50.867Z,13.77
2023-02-24T10:25:42.080Z,13.81
2023-02-24T10:28:20.250Z,13.81
2023-02-24T10:31:24.796Z,13.80
2023-02-24T10:34:06.306Z,13.87
2023-02-24T10:36:36.854Z,13.89
2023-02-24T10:39:30.351Z,13.88
2023-02-24T10:42:17.650Z,13.88
2023-02-24T10:45:01.315Z,13.92
2023-02-24T10:47:31.214Z,13.90
2023-02-24T10:49:59.434Z,13.87
2023-02-24T10:52:51.978Z,13.84
2023-02-24T10:55:45.021Z,13.89
2023-02-24T10:58:28.340Z,13.92
2023-02-24T11:01:18.527Z,13.93
2023-02-24T11:04:01.991Z,13.93
2023-02-24T11:06:40.985Z,13.94
2023-02-24T11:09:31.869Z,13.93
2023-02-24T11:12:22.496Z,13.92
2023-02-24T11:15:12.624Z,13.93
2023-02-24T11:17:51.094Z,13.89
2023-02-24T11:20:48.014Z,13.93
2023-02-24T11:23:33.477Z,13.82
2023-02-24T11:26:04.719Z,13.99
2023-02-24T11:28:49.421Z,14.10
2023-02-24T11:31:44.188Z,14.04
2023-02-24T11:34:30.140Z,14.07
2023-02-24T11:37:14.518Z,13.96
2023-02-24T11:40:05.681Z,14.03
2023-02-24T11:43:04.748Z,14.05
2023-02-24T11:45:46.581Z,14.06
2023-02-24T11:48:19.792Z,14.10
2023-02-24T11:50:55.793Z,14.11
2023-02-24T11:53:30.022Z,14.13
2023-02-24T11:56:28.194Z,14.11
2023-02-24T11:59:21.083Z,14.08
2023-02-24T12:02:03.819Z,14.11
2023-02-24T12:04:58.345Z,14.09
2023-02-24T12:07:32.412Z,14.09
2023-02-24T12:10:24.261Z,14.09
2023-02-24T12:13:06.378Z,14.10
2023-02-24T12:15:46.751Z,14.12
2023-02-24T12:18:27.600Z,14.11
2023-02-24T12:21:06.734Z,14.08
2023-02-24T12:23:39.890Z,14.07
2023-02-24T12:26:13.454Z,14.06
2023-02-24T12:28:58.989Z,14.09
2023-02-24T12:31:43.615Z,14.11
2023-02-24T12:34:48.856Z,14.09
2023-02-24T12:37:33.495Z,14.09
2023-02-24T12:40:18.538Z,14.09
2023-02-24T12:43:09.939Z,14.09
2023-02-24T12:45:59.761Z,14.10
2023-02-24T12:48:44.811Z,14.15
2023-02-24T12:51:24.819Z,14.13
2023-02-24T12:54:09.832Z,14.07
2023-02-24T12:57:23.021Z,14.04
2023-02-24T12:59:50.907Z,14.04
2023-02-24T13:02:40.873Z,14.05
2023-02-24T13:05:19.714Z,14.07
2023-02-24T13:08:23.185Z,14.04
2023-02-24T13:11:16.439Z,14.06
2023-02-24T13:13:48.907Z,14.08
2023-02-24T13:16:15.602Z,14.12
2023-02-24T13:18:42.534Z,14.08
2023-02-24T13:21:29.582Z,14.08
2023-02-24T13:24:00.702Z,14.14
2023-02-24T13:26:31.354Z,14.07
2023-02-24T13:29:13.090Z,14.09
2023-02-24T13:31:44.145Z,14.06
2023-02-24T13:34:28.779Z,14.05
2023-02-24T13:36:55.530Z,14.05
2023-02-24T13:39:41.509Z,14.09
2023-02-24T13:42:38.733Z,14.09
2023-02-24T13:45:18.890Z,14.12
2023-02-24T13:48:01.582Z,14.10
2023-02-24T13:50:54.505Z,14.15
2023-02-24T13:53:31.623Z,14.04
2023-02-24T13:56:16.754Z,14.03
2023-02-24T13:59:05.537Z,13.98
2023-02-24T14:01:49.643Z,14.01
2023-02-24T14:04:19.329Z,13.95
2023-02-24T14:06:49.964Z,13.95
2023-02-24T14:09:22.663Z,13.95
2023-02-24T14:11:55.089Z,14.01
2023-02-24T14:14:22.569Z,13.96
2023-02-24T14:16:50.983Z,13.93
2023-02-24T14:19:19.021Z,13.93
2023-02-24T14:21:54.037Z,13.92
2023-02-24T14:24:21.108Z,13.95
2023-02-24T14:26:52.037Z,13.96
2023-02-24T14:29:32.072Z,14.03
2023-02-24T14:32:00.427Z,14.33
2023-02-24T14:34:30.497Z,14.42
2023-02-24T14:37:03.651Z,14.49
2023-02-24T14:39:31.955Z,14.50
2023-02-24T14:42:07.648Z,14.60
2023-02-24T14:44:41.579Z,14.60
2023-02-24T14:47:11.421Z,14.65
2023-02-24T14:49:38.538Z,14.71
2023-02-24T14:52:16.973Z,14.66
2023-02-24T14:54:46.603Z,14.66
2023-02-24T14:57:23.640Z,14.63
2023-02-24T14:59:58.744Z,14.62
2023-02-24T15:02:33.125Z,14.58
2023-02-24T15:05:00.451Z,14.63
2023-02-24T15:07:32.260Z,14.60
2023-02-24T15:10:00.289Z,14.64
2023-02-24T15:12:50.141Z,14.57
2023-02-24T15:15:26.966Z,14.72
2023-02-24T15:18:04.389Z,14.88
2023-02-24T15:20:37.545Z,14.95
2023-02-24T15:23:04.587Z,15.01
2023-02-24T15:25:43.650Z,14.96
2023-02-24T15:28:35.148Z,14.98
2023-02-24T15:31:02.172Z,15.01
2023-02-24T15:33:37.423Z,14.94
2023-02-24T15:36:09.581Z,14.86
2023-02-24T15:38:39.330Z,14.82
2023-02-24T15:41:08.822Z,14.79
2023-02-24T15:43:35.389Z,14.82
2023-02-24T15:46:21.879Z,14.80
2023-02-24T15:48:51.238Z,14.81
2023-02-24T15:51:45.293Z,14.78
2023-02-24T15:54:29.486Z,14.73
2023-02-24T15:57:00.484Z,14.76
2023-02-24T15:59:28.472Z,14.76
2023-02-24T16:01:55.532Z,14.74
2023-02-24T16:04:23.519Z,14.75
2023-02-24T16:06:54.811Z,14.72
2023-02-24T16:09:37.050Z,14.69
2023-02-24T16:12:39.490Z,14.71
2023-02-24T16:15:14.455Z,14.69
2023-02-24T16:17:42.613Z,14.71
2023-02-24T16:20:27.444Z,14.67
2023-02-24T16:22:56.327Z,14.71
2023-02-24T16:25:24.287Z,14.74
2023-02-24T16:27:57.170Z,14.84
2023-02-24T16:30:26.781Z,14.87
2023-02-24T16:32:53.712Z,14.89
2023-02-24T16:35:20.534Z,14.87
2023-02-24T16:37:48.255Z,14.84
2023-02-24T16:40:24.794Z,14.84
2023-02-24T16:42:52.976Z,14.86
2023-02-24T16:45:20.879Z,14.84
2023-02-24T16:47:49.310Z,14.81
2023-02-24T16:50:26.583Z,14.85
2023-02-24T16:52:53.214Z,14.82
2023-02-24T16:55:19.853Z,14.77
2023-02-24T16:57:46.529Z,14.86
2023-02-24T17:00:15.720Z,14.86
2023-02-24T17:02:45.489Z,14.82
2023-02-24T17:05:17.865Z,14.85
2023-02-24T17:07:44.718Z,14.89
2023-02-24T17:10:11.810Z,14.89
2023-02-24T17:12:38.498Z,14.88
2023-02-24T17:15:06.064Z,14.86
2023-02-24T17:17:32.777Z,14.89
2023-02-24T17:19:59.533Z,14.89
2023-02-24T17:22:26.484Z,14.88
2023-02-24T17:24:53.264Z,14.89
2023-02-24T17:27:20.108Z,14.93
2023-02-24T17:29:46.900Z,14.89
2023-02-24T17:32:13.783Z,14.83
2023-02-24T17:34:40.597Z,14.93
2023-02-24T17:37:07.427Z,14.92
2023-02-24T17:39:34.206Z,14.89
2023-02-24T17:42:02.261Z,14.86
2023-02-24T17:44:28.993Z,14.88
2023-02-24T17:46:55.705Z,14.91
2023-02-24T17:49:22.803Z,14.87
2023-02-24T17:51:49.489Z,14.87
2023-02-24T17:54:16.131Z,14.92
2023-02-24T17:56:42.871Z,14.90
2023-02-24T17:59:09.474Z,14.88
2023-02-24T18:01:36.120Z,14.86
2023-02-24T18:04:02.816Z,14.91
2023-02-24T18:06:29.481Z,14.92
2023-02-24T18:09:14.757Z,14.87
2023-02-24T18:11:41.684Z,14.91
2023-02-24T18:14:08.474Z,14.89
2023-02-24T18:16:35.081Z,14.93
2023-02-24T18:19:01.785Z,14.94
2023-02-24T18:21:28.686Z,14.89
2023-02-24T18:23:55.471Z,14.89
2023-02-24T18:26:24.151Z,14.85
2023-02-24T18:28:54.495Z,14.91
2023-02-24T18:31:24.066Z,14.91
2023-02-24T18:33:51.427Z,14.88
2023-02-24T18:36:18.970Z,14.90
2023-02-24T18:38:45.743Z,14.92
2023-02-24T18:41:18.488Z,14.93
2023-02-24T18:43:48.968Z,14.87
2023-02-24T18:46:16.927Z,14.94
2023-02-24T18:48:46.794Z,14.91
2023-02-24T18:51:15.525Z,15.02
2023-02-24T18:53:42.395Z,15.09
2023-02-24T18:56:16.792Z,15.16
2023-02-24T18:58:45.646Z,15.19
2023-02-24T19:01:20.475Z,15.22
2023-02-24T19:03:48.218Z,15.25
2023-02-24T19:06:15.736Z,15.18
2023-02-24T19:08:42.543Z,15.18
2023-02-24T19:11:13.396Z,15.07
2023-02-24T19:13:40.102Z,15.02
2023-02-24T19:16:08.118Z,14.98
2023-02-24T19:18:35.230Z,14.93
2023-02-24T19:21:04.269Z,14.87
2023-02-24T19:23:31.198Z,14.98
2023-02-24T19:25:57.934Z,14.92
2023-02-24T19:28:24.716Z,15.00
2023-02-24T19:30:51.848Z,14.89
2023-02-24T19:33:18.665Z,14.87
2023-02-24T19:35:45.502Z,14.78
2023-02-24T19:38:18.171Z,14.77
2023-02-24T19:40:45.338Z,14.82
2023-02-24T19:43:11.926Z,14.78
2023-02-24T19:45:42.447Z,14.76
2023-02-24T19:48:10.369Z,14.75
2023-02-24T19:50:41.500Z,14.78
2023-02-24T19:53:08.906Z,14.78
2023-02-24T19:55:35.591Z,14.82
2023-02-24T19:58:02.286Z,14.79
2023-02-24T20:00:29.299Z,14.79
2023-02-24T20:02:56.405Z,14.74
2023-02-24T20:05:24.789Z,14.77
2023-02-24T20:07:51.473Z,14.73
2023-02-24T20:10:18.677Z,14.80
2023-02-24T20:12:45.678Z,14.86
2023-02-24T20:15:12.691Z,14.79
2023-02-24T20:17:39.643Z,14.72
2023-02-24T20:20:07.008Z,14.63
2023-02-24T20:22:33.825Z,14.57
2023-02-24T20:25:00.529Z,14.52
2023-02-24T20:27:27.232Z,14.51
2023-02-24T20:29:56.484Z,14.45
2023-02-24T20:32:23.550Z,14.37
2023-02-24T20:34:50.904Z,14.34
2023-02-24T20:37:17.835Z,14.26
2023-02-24T20:39:44.974Z,14.25
2023-02-24T20:42:12.389Z,14.19
2023-02-24T20:44:39.329Z,14.13
2023-02-24T20:47:06.080Z,14.12
2023-02-24T20:49:33.068Z,14.04
2023-02-24T20:51:59.896Z,14.03
2023-02-24T20:54:29.501Z,13.96
2023-02-24T20:56:56.080Z,13.92
2023-02-24T20:59:22.750Z,13.91
2023-02-24T21:01:50.605Z,13.85
2023-02-24T21:04:20.657Z,13.82
2023-02-24T21:06:48.151Z,13.78
2023-02-24T21:09:16.000Z,13.74
2023-02-24T21:11:42.771Z,13.73
2023-02-24T21:14:14.757Z,13.67
2023-02-24T21:16:41.603Z,13.64
2023-02-24T21:19:08.592Z,13.61
2023-02-24T21:21:35.540Z,13.57
2023-02-24T21:24:02.366Z,13.55
2023-02-24T21:26:29.555Z,13.51
2023-02-24T21:28:57.852Z,13.50
2023-02-24T21:31:25.441Z,13.48
2023-02-24T21:33:53.267Z,13.44
2023-02-24T21:36:21.743Z,13.40
2023-02-24T21:38:48.954Z,13.37
2023-02-24T21:41:16.341Z,13.35
2023-02-24T21:43:44.344Z,13.29
2023-02-24T21:46:13.410Z,13.28
2023-02-24T21:48:40.893Z,13.26
2023-02-24T21:51:11.183Z,13.24
2023-02-24T21:53:39.672Z,13.24
2023-02-24T21:56:16.580Z,13.21
2023-02-24T21:58:49.127Z,13.18
2023-02-24T22:01:20.778Z,13.16
2023-02-24T22:03:47.719Z,13.12
2023-02-24T22:06:17.587Z,13.10
2023-02-24T22:08:45.634Z,13.08
2023-02-24T22:11:15.202Z,13.06
2023-02-24T22:13:43.371Z,13.01
2023-02-24T22:16:16.023Z,12.99
2023-02-24T22:18:42.881Z,12.94
2023-02-24T22:21:12.575Z,12.91
2023-02-24T22:23:40.057Z,12.88
2023-02-24T22:26:09.253Z,12.88
2023-02-24T22:28:38.572Z,12.86
2023-02-24T22:31:07.359Z,12.85
2023-02-24T22:33:36.233Z,12.83
2023-02-24T22:36:08.816Z,12.81
2023-02-24T22:38:37.224Z,12.80
2023-02-24T22:41:07.098Z,12.78
2023-02-24T22:43:34.417Z,12.77
2023-02-24T22:46:05.075Z,12.72
2023-02-24T22:48:34.742Z,12.69
2023-02-24T22:51:03.986Z,12.69
2023-02-24T22:53:32.188Z,12.68
2023-02-24T22:55:59.579Z,12.65
2023-02-24T22:58:27.161Z,12.63
2023-02-24T23:00:54.800Z,12.59
2023-02-24T23:03:25.460Z,12.57
2023-02-24T23:06:07.931Z,12.56
2023-02-24T23:08:38.317Z,12.52
2023-02-24T23:11:06.427Z,12.52
2023-02-24T23:13:36.609Z,12.49
2023-02-24T23:16:03.923Z,12.50
2023-02-24T23:18:32.518Z,12.48
2023-02-24T23:21:03.220Z,12.49
2023-02-24T23:23:30.893Z,12.44
2023-02-24T23:25:57.941Z,12.43
2023-02-24T23:28:26.038Z,12.41
2023-02-24T23:30:53.772Z,12.38
2023-02-24T23:33:21.619Z,12.35
2023-02-24T23:35:49.040Z,12.33
2023-02-24T23:38:16.314Z,12.32
2023-02-24T23:40:50.150Z,12.30
2023-02-24T23:43:18.048Z,12.29
2023-02-24T23:45:45.233Z,12.29
2023-02-24T23:48:14.330Z,12.29
2023-02-24T23:50:42.788Z,12.26
2023-02-24T23:53:10.130Z,12.22
2023-02-24T23:55:40.099Z,12.20
2023-02-24T23:58:07.707Z,12.19
